Time;durP1;ratioP1;P1;durP2;ratioP2;P2;SDS_P1;SDS_P2;PMS_P1;PMS_P2;Temp;Humidity;BMP_temperature;BMP_pressure;BME280_temperature;BME280_humidity;BME280_pressure;Samples;Min_cycle;Max_cycle;Signal;HPM_P1;HPM_P2
2022/07/02 00:02:18;;;;;;;0.88;0.60;;;22.40;99.90;;;;;;4983767;28;20205;-73
2022/07/02 00:04:52;;;;;;;1.05;0.52;;;22.40;99.90;;;;;;4981985;28;20260;-73
2022/07/02 00:07:20;;;;;;;0.77;0.75;;;22.40;99.90;;;;;;4980079;28;20680;-74
2022/07/02 00:09:48;;;;;;;0.60;0.60;;;22.40;99.90;;;;;;4986865;28;20228;-75
2022/07/02 00:12:15;;;;;;;0.60;0.60;;;22.40;99.90;;;;;;4984426;28;20557;-73
2022/07/02 00:14:43;;;;;;;0.70;0.70;;;22.40;99.90;;;;;;4984402;28;20272;-74
2022/07/02 00:17:10;;;;;;;0.90;0.90;;;22.30;99.90;;;;;;4981020;28;20217;-73
2022/07/02 00:19:39;;;;;;;0.70;0.70;;;22.20;99.90;;;;;;4987531;28;20232;-73
2022/07/02 00:22:07;;;;;;;0.68;0.60;;;22.20;99.90;;;;;;4981563;28;20205;-73
2022/07/02 00:24:39;;;;;;;0.68;0.68;;;22.10;99.90;;;;;;4981454;28;20220;-74
2022/07/02 00:27:10;;;;;;;0.60;0.60;;;22.10;99.90;;;;;;4981254;28;20644;-72
2022/07/02 00:29:43;;;;;;;0.60;0.60;;;22.10;99.90;;;;;;4984612;28;20284;-73
2022/07/02 00:32:11;;;;;;;0.70;0.70;;;22.10;99.90;;;;;;4981938;28;20834;-74
2022/07/02 00:34:39;;;;;;;0.68;0.68;;;22.00;99.90;;;;;;4983005;28;20588;-71
2022/07/02 00:37:08;;;;;;;0.60;0.60;;;21.90;99.90;;;;;;4982407;28;20279;-73
2022/07/02 00:39:36;;;;;;;0.60;0.60;;;21.90;99.90;;;;;;4985037;28;20312;-74
2022/07/02 00:42:04;;;;;;;0.68;0.68;;;21.90;99.90;;;;;;4984330;28;20735;-74
2022/07/02 00:44:32;;;;;;;1.00;0.90;;;21.90;99.90;;;;;;4979568;28;20307;-74
2022/07/02 00:47:05;;;;;;;0.77;0.77;;;22.00;99.90;;;;;;4978447;28;20193;-74
2022/07/02 00:49:33;;;;;;;0.60;0.60;;;22.00;99.90;;;;;;4983235;28;20322;-72
2022/07/02 00:52:00;;;;;;;0.60;0.60;;;22.10;99.90;;;;;;4978062;28;20236;-74
2022/07/02 00:54:27;;;;;;;0.80;0.80;;;22.10;99.90;;;;;;4979954;28;20591;-73
2022/07/02 00:56:55;;;;;;;0.80;0.80;;;22.10;99.90;;;;;;4978440;28;20225;-74
2022/07/02 00:59:23;;;;;;;0.63;0.60;;;22.00;99.90;;;;;;4981233;28;20224;-72
2022/07/02 01:01:53;;;;;;;0.70;0.70;;;21.90;99.90;;;;;;4982010;28;20292;-74
2022/07/02 01:04:23;;;;;;;0.95;0.80;;;21.80;99.90;;;;;;4982741;28;20235;-72
2022/07/02 01:06:53;;;;;;;0.50;0.50;;;21.80;99.90;;;;;;4982988;28;20211;-73
2022/07/02 01:12:08;;;;;;;0.60;0.60;;;21.70;99.90;;;;;;4981051;28;20207;-73
2022/07/02 01:14:36;;;;;;;0.88;0.70;;;21.60;99.90;;;;;;4986134;28;20229;-74
2022/07/02 01:17:05;;;;;;;0.65;0.65;;;21.70;99.90;;;;;;4982869;28;20233;-73
2022/07/02 01:19:32;;;;;;;0.70;0.70;;;21.70;99.90;;;;;;4981414;28;21887;-74
2022/07/02 01:22:16;;;;;;;0.70;0.70;;;21.70;99.90;;;;;;4984177;28;20201;-74
2022/07/02 01:24:45;;;;;;;0.82;0.82;;;21.70;99.90;;;;;;4980266;28;20217;-73
2022/07/02 01:27:13;;;;;;;0.70;0.70;;;21.60;99.90;;;;;;4982428;28;20251;-72
2022/07/02 01:29:40;;;;;;;0.70;0.70;;;21.50;99.90;;;;;;4984043;28;20304;-73
2022/07/02 01:32:08;;;;;;;0.70;0.70;;;21.40;99.90;;;;;;4984536;28;20209;-74
2022/07/02 01:34:37;;;;;;;0.75;0.75;;;21.30;99.90;;;;;;4981513;28;20737;-74
2022/07/02 01:37:07;;;;;;;0.70;0.70;;;21.30;99.90;;;;;;4982516;28;20225;-73
2022/07/02 01:39:35;;;;;;;0.50;0.50;;;21.30;99.90;;;;;;4986613;28;20223;-73
2022/07/02 01:42:03;;;;;;;0.50;0.50;;;21.30;99.90;;;;;;4983677;28;20206;-74
2022/07/02 01:44:30;;;;;;;1.17;0.75;;;21.30;99.90;;;;;;4987437;28;20307;-73
2022/07/02 01:46:57;;;;;;;0.77;0.77;;;21.30;99.90;;;;;;5011776;22;20223;-75
2022/07/02 01:49:24;;;;;;;0.95;0.68;;;21.20;99.90;;;;;;5002533;28;20659;-76
2022/07/02 01:51:51;;;;;;;0.70;0.70;;;21.30;99.90;;;;;;5004861;28;20196;-76
2022/07/02 01:54:18;;;;;;;0.82;0.70;;;21.30;99.90;;;;;;5000033;28;20219;-75
2022/07/02 01:56:47;;;;;;;0.73;0.73;;;21.20;99.90;;;;;;5001038;28;20220;-76
2022/07/02 01:59:14;;;;;;;0.50;0.50;;;21.10;99.90;;;;;;5000502;28;20209;-75
2022/07/02 02:01:41;;;;;;;0.85;0.60;;;21.10;99.90;;;;;;5002626;28;20275;-76
2022/07/02 02:04:09;;;;;;;0.70;0.70;;;21.10;99.90;;;;;;5001479;28;20208;-76
2022/07/02 02:06:36;;;;;;;0.60;0.60;;;21.10;99.90;;;;;;5013372;28;20216;-77
2022/07/02 02:09:04;;;;;;;0.57;0.57;;;21.10;99.90;;;;;;5007876;28;20200;-76
2022/07/02 02:11:32;;;;;;;0.85;0.75;;;21.10;99.90;;;;;;5001997;28;20545;-76
2022/07/02 02:14:01;;;;;;;0.68;0.68;;;21.00;99.90;;;;;;5000544;28;20215;-76
2022/07/02 02:16:29;;;;;;;0.65;0.65;;;21.00;99.90;;;;;;4998826;28;20235;-75
2022/07/02 02:18:58;;;;;;;0.70;0.70;;;20.80;99.90;;;;;;5002512;28;20196;-75
2022/07/02 02:21:26;;;;;;;0.70;0.70;;;20.80;99.90;;;;;;5003443;28;20735;-76
2022/07/02 02:23:54;;;;;;;0.60;0.60;;;20.80;99.90;;;;;;4997002;28;20208;-75
2022/07/02 02:26:21;;;;;;;0.85;0.85;;;20.90;99.90;;;;;;5005745;28;20698;-75
2022/07/02 02:28:49;;;;;;;0.60;0.60;;;21.00;99.90;;;;;;5003077;28;20292;-75
2022/07/02 02:31:17;;;;;;;0.70;0.70;;;21.00;99.90;;;;;;5000416;28;20228;-76
2022/07/02 02:33:44;;;;;;;1.27;0.68;;;21.00;99.90;;;;;;5001871;28;20208;-76
2022/07/02 02:36:11;;;;;;;0.60;0.60;;;21.00;99.90;;;;;;4999888;28;20227;-76
2022/07/02 02:38:38;;;;;;;0.80;0.80;;;21.00;99.90;;;;;;5005315;28;20207;-75
2022/07/02 02:41:06;;;;;;;0.80;0.68;;;21.00;99.90;;;;;;4999648;28;20217;-76
2022/07/02 02:43:33;;;;;;;0.63;0.60;;;20.90;99.90;;;;;;5001020;28;20313;-74
2022/07/02 02:46:00;;;;;;;0.77;0.77;;;20.90;99.90;;;;;;4999670;28;20228;-76
2022/07/02 02:48:29;;;;;;;0.80;0.80;;;20.80;99.90;;;;;;5004586;28;20196;-76
2022/07/02 02:50:57;;;;;;;0.60;0.60;;;20.70;99.90;;;;;;4999655;28;20825;-76
2022/07/02 02:53:25;;;;;;;0.65;0.65;;;20.70;99.90;;;;;;4999370;28;20598;-75
2022/07/02 02:55:52;;;;;;;0.57;0.57;;;20.70;99.90;;;;;;4998615;28;20227;-76
2022/07/02 02:58:19;;;;;;;0.60;0.60;;;20.70;99.90;;;;;;5015538;28;20232;-76
2022/07/02 03:00:47;;;;;;;2.80;0.70;;;20.70;99.90;;;;;;5004319;28;20828;-75
2022/07/02 03:03:14;;;;;;;0.60;0.60;;;20.70;99.90;;;;;;5001677;28;20200;-75
2022/07/02 03:05:42;;;;;;;0.70;0.70;;;20.70;99.90;;;;;;5003262;28;20227;-76
2022/07/02 03:08:09;;;;;;;0.50;0.50;;;20.70;99.90;;;;;;5003311;28;20200;-75
2022/07/02 03:10:37;;;;;;;0.70;0.70;;;20.70;99.90;;;;;;5004675;28;20698;-76
2022/07/02 03:13:04;;;;;;;0.73;0.65;;;20.60;99.90;;;;;;5003543;28;20208;-75
2022/07/02 03:15:31;;;;;;;0.70;0.70;;;20.60;99.90;;;;;;5003623;28;20604;-76
2022/07/02 03:17:58;;;;;;;0.88;0.88;;;20.60;99.90;;;;;;5007029;28;20223;-76
2022/07/02 03:20:25;;;;;;;0.68;0.68;;;20.50;99.90;;;;;;5007684;28;20216;-76
2022/07/02 03:22:53;;;;;;;0.65;0.65;;;20.50;99.90;;;;;;5006139;28;20192;-77
2022/07/02 03:25:21;;;;;;;0.50;0.50;;;20.60;99.90;;;;;;5006906;28;20817;-76
2022/07/02 03:27:48;;;;;;;0.80;0.80;;;20.60;99.90;;;;;;5008963;28;20235;-76
2022/07/02 03:30:15;;;;;;;0.80;0.80;;;20.60;99.90;;;;;;5002137;28;20660;-76
2022/07/02 03:32:42;;;;;;;0.60;0.60;;;20.50;99.90;;;;;;5005545;28;20203;-75
2022/07/02 03:35:09;;;;;;;0.60;0.60;;;20.50;99.90;;;;;;5004512;28;20223;-76
2022/07/02 03:37:36;;;;;;;0.90;0.90;;;20.40;99.90;;;;;;5006049;28;20223;-76
2022/07/02 03:40:06;;;;;;;0.68;0.65;;;20.50;99.90;;;;;;5003207;28;20234;-76
2022/07/02 03:42:33;;;;;;;0.80;0.80;;;20.50;99.90;;;;;;5003957;28;20217;-76
2022/07/02 03:45:00;;;;;;;0.90;0.90;;;20.40;99.90;;;;;;5007061;28;20220;-76
2022/07/02 03:47:27;;;;;;;0.80;0.80;;;20.30;99.90;;;;;;5007937;28;20544;-76
2022/07/02 03:49:54;;;;;;;0.90;0.70;;;20.30;99.90;;;;;;5012937;28;20250;-76
2022/07/02 03:52:21;;;;;;;0.98;0.90;;;20.40;99.90;;;;;;5008233;28;20203;-76
2022/07/02 03:54:48;;;;;;;0.73;0.73;;;20.60;99.90;;;;;;5005417;28;20216;-74
2022/07/02 03:57:17;;;;;;;0.90;0.90;;;20.60;99.90;;;;;;5001616;28;20579;-75
2022/07/02 03:59:44;;;;;;;0.63;0.63;;;20.60;99.90;;;;;;5000385;28;20221;-76
2022/07/02 04:02:11;;;;;;;0.60;0.60;;;20.60;99.90;;;;;;5003170;28;20201;-76
2022/07/02 04:04:38;;;;;;;0.70;0.70;;;20.60;99.90;;;;;;5000383;28;20737;-76
2022/07/02 04:07:05;;;;;;;3.20;0.70;;;20.70;99.90;;;;;;5003604;28;20251;-76
2022/07/02 04:09:32;;;;;;;0.70;0.70;;;20.60;99.90;;;;;;5004833;28;20223;-76
2022/07/02 04:11:59;;;;;;;0.70;0.70;;;20.70;99.90;;;;;;5002835;28;20550;-76
2022/07/02 04:14:28;;;;;;;1.30;0.60;;;20.80;99.90;;;;;;5008197;28;20503;-75
2022/07/02 04:16:55;;;;;;;0.70;0.70;;;20.90;99.90;;;;;;5004379;28;20608;-76
2022/07/02 04:19:22;;;;;;;0.65;0.65;;;20.90;99.90;;;;;;5001891;28;20224;-75
2022/07/02 04:21:49;;;;;;;1.13;0.70;;;20.80;99.90;;;;;;5007091;28;20208;-76
2022/07/02 04:24:16;;;;;;;1.55;0.93;;;20.80;99.90;;;;;;5008548;28;20204;-75
2022/07/02 04:26:43;;;;;;;0.60;0.60;;;20.80;99.90;;;;;;5004750;28;20224;-76
2022/07/02 04:29:10;;;;;;;0.50;0.50;;;20.90;99.90;;;;;;5007396;28;20203;-76
2022/07/02 04:31:39;;;;;;;0.80;0.80;;;20.90;99.90;;;;;;5004809;28;20207;-76
2022/07/02 04:34:06;;;;;;;1.13;0.80;;;21.00;99.90;;;;;;5004291;28;20212;-76
2022/07/02 04:36:33;;;;;;;0.75;0.75;;;21.00;99.90;;;;;;5004137;28;20240;-75
2022/07/02 04:39:01;;;;;;;0.75;0.75;;;21.10;99.90;;;;;;5005341;28;20196;-76
2022/07/02 04:41:29;;;;;;;0.65;0.65;;;21.00;99.90;;;;;;5015911;28;20180;-77
2022/07/02 04:43:56;;;;;;;0.60;0.60;;;21.00;99.90;;;;;;5007937;28;20287;-76
2022/07/02 04:46:23;;;;;;;0.73;0.73;;;21.00;99.90;;;;;;5004667;28;20228;-75
2022/07/02 04:48:52;;;;;;;1.02;0.95;;;20.90;99.90;;;;;;5003800;28;20686;-76
2022/07/02 04:51:19;;;;;;;1.38;0.80;;;21.10;99.90;;;;;;5002348;28;20224;-76
2022/07/02 04:53:46;;;;;;;1.60;0.88;;;21.20;99.90;;;;;;5008515;28;20291;-75
2022/07/02 04:56:13;;;;;;;1.25;0.75;;;21.20;99.90;;;;;;5001876;28;20290;-74
2022/07/02 04:58:40;;;;;;;1.40;0.63;;;21.20;99.90;;;;;;5007150;28;20223;-76
2022/07/02 05:01:08;;;;;;;0.70;0.70;;;21.30;99.90;;;;;;5003662;28;20220;-75
2022/07/02 05:03:35;;;;;;;0.70;0.60;;;21.30;99.90;;;;;;5005505;28;20204;-76
2022/07/02 05:06:03;;;;;;;3.33;0.70;;;21.40;99.90;;;;;;5006066;28;20867;-76
2022/07/02 05:08:30;;;;;;;0.65;0.65;;;21.40;99.90;;;;;;5003756;28;20196;-76
2022/07/02 05:10:58;;;;;;;0.93;0.77;;;21.50;99.90;;;;;;5001786;28;20224;-76
2022/07/02 05:13:25;;;;;;;0.80;0.80;;;21.20;99.90;;;;;;5004871;28;20595;-76
2022/07/02 05:15:52;;;;;;;1.02;1.02;;;21.10;99.90;;;;;;5003555;28;20216;-75
2022/07/02 05:18:19;;;;;;;1.13;0.95;;;21.10;99.90;;;;;;5005257;28;20230;-76
2022/07/02 05:20:48;;;;;;;1.38;0.90;;;21.20;99.90;;;;;;5003242;28;20227;-75
2022/07/02 05:23:16;;;;;;;0.90;0.90;;;21.20;99.90;;;;;;5004153;28;20201;-76
2022/07/02 05:25:43;;;;;;;0.90;0.90;;;21.20;99.90;;;;;;5004018;28;20212;-75
2022/07/02 05:28:10;;;;;;;2.00;1.17;;;21.20;99.90;;;;;;5004123;28;20201;-75
2022/07/02 05:30:37;;;;;;;1.13;1.13;;;21.20;99.90;;;;;;5000607;28;21161;-75
2022/07/02 05:33:05;;;;;;;2.35;1.10;;;21.30;99.90;;;;;;5006011;28;20205;-76
2022/07/02 05:35:32;;;;;;;1.63;1.00;;;21.50;99.90;;;;;;5004913;28;20224;-75
2022/07/02 05:37:59;;;;;;;1.20;1.10;;;21.70;99.90;;;;;;4995555;28;20224;-75
2022/07/02 05:40:27;;;;;;;1.08;0.90;;;21.70;99.90;;;;;;4997395;28;20541;-76
2022/07/02 05:42:55;;;;;;;1.08;1.08;;;21.70;99.90;;;;;;5000140;28;20625;-76
2022/07/02 05:45:22;;;;;;;1.48;1.10;;;21.80;99.90;;;;;;4995385;28;20216;-75
2022/07/02 05:47:49;;;;;;;4.57;1.40;;;21.90;99.90;;;;;;5003190;28;20613;-76
2022/07/02 05:50:16;;;;;;;1.67;1.17;;;22.00;99.90;;;;;;4997279;28;20926;-75
2022/07/02 05:52:43;;;;;;;1.75;1.23;;;22.00;99.90;;;;;;5000759;28;20204;-76
2022/07/02 05:55:12;;;;;;;2.15;1.30;;;22.00;99.90;;;;;;4998992;28;20235;-75
2022/07/02 05:57:40;;;;;;;1.85;1.20;;;22.00;99.90;;;;;;4999576;28;20691;-77
2022/07/02 06:00:11;;;;;;;1.27;1.17;;;22.00;99.90;;;;;;5000568;28;20640;-74
2022/07/02 06:02:38;;;;;;;1.35;1.20;;;22.00;99.90;;;;;;5000926;28;20232;-76
2022/07/02 06:07:38;;;;;;;1.42;1.30;;;22.00;99.90;;;;;;5002981;28;20243;-75
2022/07/02 06:07:52;;;;;;;1.40;1.23;;;22.10;99.90;;;;;;5008626;28;20311;-76
2022/07/02 06:10:19;;;;;;;1.65;1.55;;;22.20;99.90;;;;;;5005266;28;20241;-75
2022/07/02 06:12:49;;;;;;;1.48;1.38;;;22.10;99.90;;;;;;5008918;28;20642;-75
2022/07/02 06:15:17;;;;;;;1.98;1.33;;;22.00;99.90;;;;;;5006560;28;20232;-75
2022/07/02 06:17:44;;;;;;;1.42;1.33;;;22.00;99.90;;;;;;5003090;28;20738;-75
2022/07/02 06:20:12;;;;;;;2.42;1.33;;;22.10;99.90;;;;;;5004313;28;20225;-76
2022/07/02 06:22:40;;;;;;;1.38;1.27;;;22.20;99.90;;;;;;5001383;28;20663;-76
2022/07/02 06:25:09;;;;;;;4.82;1.50;;;22.30;99.90;;;;;;5010990;28;20228;-76
2022/07/02 06:27:38;;;;;;;1.30;1.20;;;22.50;99.90;;;;;;5012821;28;20218;-76
2022/07/02 06:30:07;;;;;;;2.45;1.30;;;22.70;99.90;;;;;;5006106;28;20247;-76
2022/07/02 06:32:35;;;;;;;2.35;1.40;;;22.90;99.90;;;;;;5010497;28;20207;-77
2022/07/02 06:35:03;;;;;;;1.30;1.20;;;22.90;99.90;;;;;;5003082;28;20232;-76
2022/07/02 06:37:30;;;;;;;1.08;1.00;;;22.80;99.90;;;;;;5007796;28;20216;-76
2022/07/02 06:39:57;;;;;;;2.70;1.48;;;22.80;99.90;;;;;;5003841;28;20607;-76
2022/07/02 06:42:26;;;;;;;1.30;1.20;;;22.80;99.90;;;;;;4999473;28;20200;-76
2022/07/02 06:44:55;;;;;;;2.42;1.10;;;22.90;99.90;;;;;;5002302;28;20224;-75
2022/07/02 06:47:24;;;;;;;1.50;1.10;;;23.10;99.90;;;;;;5007682;28;20232;-75
2022/07/02 06:49:52;;;;;;;1.48;1.30;;;23.30;99.90;;;;;;5007823;28;20219;-76
2022/07/02 06:52:19;;;;;;;1.65;1.30;;;23.30;99.90;;;;;;5005097;28;20200;-76
2022/07/02 06:54:46;;;;;;;1.27;1.10;;;23.30;99.90;;;;;;5008989;28;20227;-76
2022/07/02 06:57:13;;;;;;;1.20;1.10;;;23.30;99.90;;;;;;5007487;28;20667;-76
2022/07/02 06:59:40;;;;;;;2.13;1.35;;;23.40;99.90;;;;;;5003548;28;20231;-76
2022/07/02 07:02:07;;;;;;;1.40;1.30;;;23.50;99.90;;;;;;5002322;28;20709;-75
2022/07/02 07:04:37;;;;;;;2.28;1.35;;;23.50;99.90;;;;;;5002264;28;20610;-76
2022/07/02 07:07:05;;;;;;;1.88;1.20;;;23.40;99.90;;;;;;5006927;28;20224;-76
2022/07/02 07:09:34;;;;;;;2.67;1.33;;;23.40;99.90;;;;;;5004337;28;20603;-75
2022/07/02 07:12:04;;;;;;;1.20;1.10;;;23.50;99.90;;;;;;5004065;28;20200;-76
2022/07/02 07:14:31;;;;;;;3.00;1.50;;;23.70;99.90;;;;;;5002295;28;20719;-76
2022/07/02 07:16:58;;;;;;;1.33;1.23;;;23.70;99.90;;;;;;5013929;28;20204;-77
2022/07/02 07:19:25;;;;;;;2.05;1.40;;;23.70;99.90;;;;;;5006793;28;20232;-76
2022/07/02 07:21:54;;;;;;;1.73;1.40;;;23.80;99.90;;;;;;5008378;28;20223;-76
2022/07/02 07:24:21;;;;;;;3.00;1.15;;;24.00;99.90;;;;;;5001070;28;20220;-75
2022/07/02 07:26:48;;;;;;;1.23;1.00;;;24.10;99.90;;;;;;5007143;28;20219;-76
2022/07/02 07:29:16;;;;;;;3.67;1.40;;;24.10;99.90;;;;;;5004379;28;20192;-76
2022/07/02 07:31:43;;;;;;;1.42;1.30;;;24.10;99.90;;;;;;5006197;28;20593;-76
2022/07/02 07:34:10;;;;;;;6.05;1.55;;;24.00;99.90;;;;;;5004601;28;20211;-76
2022/07/02 07:36:37;;;;;;;3.20;1.20;;;24.10;99.90;;;;;;5003880;28;20220;-76
2022/07/02 07:39:06;;;;;;;2.05;1.30;;;24.10;99.90;;;;;;5001835;28;20581;-76
2022/07/02 07:41:33;;;;;;;3.30;1.42;;;24.20;99.90;;;;;;5003224;28;20216;-75
2022/07/02 07:44:01;;;;;;;2.78;1.33;;;24.10;99.90;;;;;;5000941;28;20198;-76
2022/07/02 07:46:28;;;;;;;2.33;1.50;;;24.10;99.90;;;;;;5006423;28;20310;-76
2022/07/02 07:48:56;;;;;;;3.00;1.30;;;24.20;99.90;;;;;;5003894;28;20203;-76
2022/07/02 07:51:23;;;;;;;1.48;1.30;;;24.40;99.90;;;;;;5007600;28;20223;-75
2022/07/02 07:53:50;;;;;;;1.27;1.17;;;24.70;99.90;;;;;;5007219;28;20287;-76
2022/07/02 07:58:58;;;;;;;2.17;1.10;;;24.50;99.90;;;;;;5023375;28;20610;-73
2022/07/02 08:01:26;;;;;;;2.22;1.10;;;24.70;99.90;;;;;;5022410;28;20208;-74
2022/07/02 08:03:53;;;;;;;1.40;1.30;;;24.70;99.90;;;;;;5029544;28;20693;-74
2022/07/02 08:06:20;;;;;;;1.80;1.23;;;24.80;99.90;;;;;;5028828;28;20216;-75
2022/07/02 08:08:47;;;;;;;1.85;1.40;;;24.90;99.90;;;;;;5040810;28;20199;-75
2022/07/02 08:11:14;;;;;;;1.88;1.50;;;24.90;99.90;;;;;;5043510;28;20614;-74
2022/07/02 08:13:41;;;;;;;2.03;1.40;;;25.00;99.90;;;;;;5040785;28;20230;-74
2022/07/02 08:16:10;;;;;;;1.63;1.10;;;25.20;99.90;;;;;;5042410;28;20410;-74
2022/07/02 08:18:37;;;;;;;1.30;1.20;;;25.20;99.90;;;;;;5037791;28;20219;-74
2022/07/02 08:21:04;;;;;;;1.52;1.30;;;25.50;99.90;;;;;;5035593;28;20226;-75
2022/07/02 08:23:31;;;;;;;1.40;1.15;;;25.80;99.90;;;;;;5040141;28;20207;-74
2022/07/02 08:25:58;;;;;;;1.10;1.00;;;25.90;99.90;;;;;;5044228;28;20214;-74
2022/07/02 08:28:26;;;;;;;2.45;1.20;;;26.20;99.90;;;;;;5037970;28;20479;-75
2022/07/02 08:30:53;;;;;;;1.40;1.30;;;26.40;99.90;;;;;;5040138;28;20215;-75
2022/07/02 08:33:21;;;;;;;1.30;1.20;;;26.50;99.90;;;;;;5043006;28;20616;-74
2022/07/02 08:35:49;;;;;;;1.20;1.10;;;26.40;99.90;;;;;;5041578;28;20217;-75
2022/07/02 08:38:16;;;;;;;1.30;1.20;;;26.30;99.90;;;;;;5041285;28;20229;-73
2022/07/02 08:40:44;;;;;;;1.42;1.25;;;26.40;99.90;;;;;;5036374;28;20249;-73
2022/07/02 08:43:13;;;;;;;1.30;1.20;;;26.70;99.90;;;;;;5043530;28;20215;-74
2022/07/02 08:45:41;;;;;;;2.70;1.17;;;26.70;99.90;;;;;;5041622;28;20219;-75
2022/07/02 08:48:09;;;;;;;2.55;1.30;;;26.70;99.90;;;;;;5040952;28;20308;-73
2022/07/02 08:50:38;;;;;;;1.30;1.20;;;26.80;99.90;;;;;;5046555;28;20222;-74
2022/07/02 08:53:06;;;;;;;2.17;1.38;;;26.90;99.90;;;;;;5047652;28;20207;-76
2022/07/02 08:55:35;;;;;;;1.30;1.20;;;26.70;99.90;;;;;;5051177;28;20594;-75
2022/07/02 08:58:03;;;;;;;1.10;1.00;;;26.70;99.90;;;;;;5043377;28;20593;-72
2022/07/02 09:00:30;;;;;;;1.20;1.10;;;27.10;99.90;;;;;;5034920;28;20516;-74
2022/07/02 09:02:59;;;;;;;2.13;1.60;;;27.30;99.90;;;;;;5039252;28;20689;-74
2022/07/02 09:05:27;;;;;;;1.70;1.30;;;27.40;99.90;;;;;;5037307;28;21061;-75
2022/07/02 09:07:57;;;;;;;1.35;1.25;;;27.60;99.90;;;;;;5036499;28;20226;-75
2022/07/02 09:10:26;;;;;;;1.98;1.40;;;27.60;99.90;;;;;;5041913;28;20231;-75
2022/07/02 09:12:54;;;;;;;1.67;1.50;;;27.50;99.90;;;;;;5043902;28;20293;-75
2022/07/02 09:15:21;;;;;;;2.00;1.42;;;27.20;99.90;;;;;;5038462;28;20310;-74
2022/07/02 09:17:48;;;;;;;4.03;1.48;;;27.10;99.90;;;;;;5044674;28;20219;-73
2022/07/02 09:20:16;;;;;;;1.40;1.30;;;27.10;99.90;;;;;;5040255;28;20227;-74
2022/07/02 09:22:46;;;;;;;1.38;1.27;;;27.20;99.90;;;;;;5042173;28;20203;-74
2022/07/02 09:25:17;;;;;;;1.48;1.30;;;27.20;99.90;;;;;;5043882;28;20743;-74
2022/07/02 09:27:45;;;;;;;1.20;1.10;;;27.30;99.90;;;;;;5038382;28;20220;-72
2022/07/02 09:30:16;;;;;;;1.85;1.13;;;27.30;99.90;;;;;;5038111;28;20223;-73
2022/07/02 09:32:45;;;;;;;1.40;1.30;;;27.40;99.90;;;;;;5037121;28;20190;-74
2022/07/02 09:35:19;;;;;;;3.75;1.23;;;27.60;99.90;;;;;;5035523;28;20289;-75
2022/07/02 09:37:47;;;;;;;1.50;1.40;;;27.50;99.90;;;;;;5046540;28;20218;-74
2022/07/02 09:40:16;;;;;;;2.20;1.40;;;27.50;99.90;;;;;;5033880;28;20277;-74
2022/07/02 09:42:48;;;;;;;2.03;1.48;;;27.60;99.90;;;;;;5043063;28;20201;-74
2022/07/02 09:45:16;;;;;;;1.10;1.00;;;27.60;99.90;;;;;;5041006;28;20281;-74
2022/07/02 09:47:48;;;;;;;1.88;1.33;;;27.80;99.90;;;;;;5040169;28;20227;-74
2022/07/02 09:50:17;;;;;;;1.73;1.25;;;28.10;99.90;;;;;;5042772;28;20321;-74
2022/07/02 09:52:50;;;;;;;2.28;1.27;;;28.20;99.90;;;;;;5036195;28;20250;-74
2022/07/02 09:55:22;;;;;;;2.75;1.60;;;28.20;99.90;;;;;;5039779;28;20225;-74
2022/07/02 09:57:51;;;;;;;1.63;1.52;;;28.10;99.90;;;;;;5038887;28;20698;-73
2022/07/02 10:00:19;;;;;;;1.20;1.10;;;28.20;99.90;;;;;;5037892;28;20556;-75
2022/07/02 10:02:49;;;;;;;3.80;1.58;;;28.20;99.90;;;;;;5035529;28;20203;-76
2022/07/02 10:05:22;;;;;;;2.80;1.55;;;28.20;99.90;;;;;;5034597;28;20599;-75
2022/07/02 10:07:49;;;;;;;1.95;1.33;;;28.30;99.90;;;;;;5043471;28;20226;-75
2022/07/02 10:10:17;;;;;;;1.55;1.30;;;28.70;99.90;;;;;;5034909;28;20220;-75
2022/07/02 10:12:45;;;;;;;1.23;1.17;;;28.90;99.90;;;;;;5037407;28;20203;-73
2022/07/02 10:15:16;;;;;;;1.30;1.20;;;28.80;99.90;;;;;;5040882;28;20505;-74
2022/07/02 10:17:44;;;;;;;1.38;1.27;;;28.70;99.90;;;;;;5035106;28;20231;-72
2022/07/02 10:20:12;;;;;;;1.42;1.20;;;28.80;99.90;;;;;;5036555;28;20230;-74
2022/07/02 10:22:39;;;;;;;1.83;1.13;;;28.90;99.90;;;;;;5041589;28;20508;-75
2022/07/02 10:25:08;;;;;;;1.45;1.33;;;28.90;99.90;;;;;;5040161;28;20220;-74
2022/07/02 10:27:35;;;;;;;3.13;1.35;;;29.10;99.90;;;;;;5042607;28;20229;-75
2022/07/02 10:30:04;;;;;;;1.42;1.30;;;29.10;99.90;;;;;;5038110;28;20210;-75
2022/07/02 10:32:40;;;;;;;1.40;1.30;;;29.10;99.90;;;;;;5038395;28;21195;-74
2022/07/02 10:35:11;;;;;;;1.23;1.13;;;29.20;99.90;;;;;;5032419;28;20223;-72
2022/07/02 10:37:39;;;;;;;2.05;1.08;;;29.30;99.90;;;;;;5035264;28;20215;-75
2022/07/02 10:40:08;;;;;;;1.30;1.20;;;29.30;99.90;;;;;;5036707;28;20306;-74
2022/07/02 10:42:40;;;;;;;1.35;1.27;;;29.50;99.90;;;;;;5038686;28;20203;-75
2022/07/02 10:45:14;;;;;;;1.23;1.13;;;29.70;99.90;;;;;;5034666;28;20223;-73
2022/07/02 10:47:58;;;;;;;1.65;1.30;;;29.70;99.90;;;;;;5033153;28;21103;-75
2022/07/02 10:50:38;;;;;;;1.50;1.13;;;29.80;99.90;;;;;;5036352;28;20217;-74
2022/07/02 10:53:08;;;;;;;2.67;1.38;;;29.70;99.90;;;;;;5034707;28;20293;-75
2022/07/02 10:55:36;;;;;;;1.60;1.20;;;29.70;99.90;;;;;;5041799;28;20299;-74
2022/07/02 10:58:04;;;;;;;1.38;1.27;;;29.80;99.90;;;;;;5036361;28;20230;-75
2022/07/02 11:00:35;;;;;;;2.45;1.20;;;30.00;99.90;;;;;;5033035;28;20526;-73
2022/07/02 11:03:14;;;;;;;1.27;1.10;;;30.10;99.90;;;;;;5037214;28;20272;-75
2022/07/02 11:05:58;;;;;;;1.23;1.13;;;30.40;99.90;;;;;;5035144;28;20219;-75
2022/07/02 11:08:50;;;;;;;1.30;1.20;;;30.50;99.90;;;;;;5038363;28;20210;-75
2022/07/02 11:11:23;;;;;;;1.73;1.25;;;30.80;99.90;;;;;;5038395;28;20286;-75
2022/07/02 11:13:55;;;;;;;3.00;1.45;;;30.80;99.90;;;;;;5033856;28;20199;-74
2022/07/02 11:16:27;;;;;;;1.30;1.20;;;30.80;99.90;;;;;;5033933;28;20230;-75
2022/07/02 11:18:55;;;;;;;1.52;1.30;;;30.90;99.90;;;;;;5034725;28;20202;-75
2022/07/02 11:21:24;;;;;;;1.55;1.30;;;31.00;99.90;;;;;;5034747;28;20219;-75
2022/07/02 11:23:52;;;;;;;1.30;1.20;;;31.10;99.90;;;;;;5030267;28;20226;-75
2022/07/02 11:26:21;;;;;;;1.30;1.20;;;31.10;99.90;;;;;;5015872;28;20219;-73
2022/07/02 11:28:48;;;;;;;1.88;1.20;;;30.90;99.90;;;;;;5011696;28;20196;-74
2022/07/02 11:31:16;;;;;;;1.13;1.08;;;30.90;99.90;;;;;;5014446;28;20944;-75
2022/07/02 11:33:47;;;;;;;2.45;1.48;;;31.00;99.90;;;;;;5021734;28;20379;-74
2022/07/02 11:36:14;;;;;;;3.88;1.40;;;31.20;99.90;;;;;;5017978;28;20237;-75
2022/07/02 11:38:43;;;;;;;3.70;1.52;;;31.30;99.90;;;;;;5016551;28;20227;-75
2022/07/02 11:41:18;;;;;;;1.77;1.20;;;31.30;99.90;;;;;;5017768;28;20223;-74
2022/07/02 11:43:46;;;;;;;1.65;1.38;;;31.40;99.80;;;;;;5018119;28;20195;-74
2022/07/02 11:46:14;;;;;;;1.45;1.13;;;31.50;99.90;;;;;;5018056;28;20226;-75
2022/07/02 11:48:41;;;;;;;1.92;1.13;;;31.70;99.90;;;;;;5016544;28;20229;-75
2022/07/02 11:51:10;;;;;;;2.70;1.30;;;31.80;99.90;;;;;;5016615;28;20714;-75
2022/07/02 11:53:37;;;;;;;1.70;1.30;;;31.70;99.90;;;;;;5017688;28;20763;-74
2022/07/02 11:56:09;;;;;;;1.85;1.10;;;31.80;99.90;;;;;;5018999;28;20228;-76
2022/07/02 11:58:44;;;;;;;1.35;1.10;;;31.80;99.90;;;;;;5018963;28;20223;-76
2022/07/02 12:01:22;;;;;;;1.92;1.30;;;31.90;99.90;;;;;;5021582;28;20227;-76
2022/07/02 12:03:50;;;;;;;1.77;1.27;;;32.20;99.10;;;;;;5018541;28;20210;-75
2022/07/02 12:06:19;;;;;;;2.40;1.30;;;32.30;99.90;;;;;;5019863;28;20220;-74
2022/07/02 12:08:46;;;;;;;1.80;1.30;;;32.40;99.90;;;;;;5015073;28;20206;-75
2022/07/02 12:11:14;;;;;;;1.73;1.48;;;32.40;99.80;;;;;;5017330;28;20277;-75
2022/07/02 12:13:42;;;;;;;1.92;1.25;;;32.40;99.20;;;;;;5015213;28;20204;-75
2022/07/02 12:16:11;;;;;;;1.90;1.10;;;32.50;99.60;;;;;;5015159;28;20641;-74
2022/07/02 12:18:38;;;;;;;2.85;1.50;;;32.30;99.60;;;;;;5018093;28;20334;-75
2022/07/02 12:21:10;;;;;;;1.25;1.15;;;32.20;99.10;;;;;;5017111;28;20259;-75
2022/07/02 12:23:49;;;;;;;1.60;1.27;;;32.30;98.40;;;;;;5022562;28;20297;-76
2022/07/02 12:26:23;;;;;;;2.67;1.48;;;32.40;97.70;;;;;;5021240;28;20223;-75
2022/07/02 12:31:50;;;;;;;1.67;1.20;;;32.90;96.80;;;;;;5018586;28;20218;-75
2022/07/02 12:34:18;;;;;;;1.42;1.30;;;33.00;96.20;;;;;;5012134;28;20232;-75
2022/07/02 12:36:53;;;;;;;1.30;1.20;;;33.10;97.10;;;;;;5016898;28;20238;-75
2022/07/02 12:39:23;;;;;;;2.25;1.52;;;33.30;98.20;;;;;;5015333;28;20650;-75
2022/07/02 12:41:50;;;;;;;1.70;1.40;;;33.30;95.40;;;;;;5022307;28;20243;-75
2022/07/02 12:44:20;;;;;;;3.33;1.60;;;33.00;94.40;;;;;;5013954;28;20234;-76
2022/07/02 12:46:48;;;;;;;2.53;1.63;;;33.00;94.10;;;;;;5011253;28;20230;-75
2022/07/02 12:49:20;;;;;;;2.03;1.52;;;32.90;93.70;;;;;;5013517;28;20207;-75
2022/07/02 12:51:55;;;;;;;1.95;1.45;;;33.00;93.40;;;;;;5017686;28;20227;-76
2022/07/02 12:54:35;;;;;;;2.40;1.45;;;33.00;93.50;;;;;;5016253;28;20581;-74
2022/07/02 12:57:15;;;;;;;2.55;1.48;;;33.10;93.20;;;;;;5016705;28;20246;-75
2022/07/02 12:59:42;;;;;;;1.50;1.35;;;33.20;93.50;;;;;;5015120;28;20242;-75
2022/07/02 13:02:14;;;;;;;1.90;1.50;;;33.20;93.70;;;;;;5014825;28;20203;-75
2022/07/02 13:04:42;;;;;;;2.03;1.50;;;33.30;93.40;;;;;;5016067;28;20228;-75